createdAt,value
2022-09-15T00:02:50.674Z,64
2022-09-15T00:12:51.469Z,72
2022-09-15T00:22:51.625Z,47
2022-09-15T00:32:52.525Z,52
2022-09-15T00:52:53.621Z,79
2022-09-15T01:12:54.172Z,60
2022-09-15T01:22:54.887Z,39
2022-09-15T01:32:55.212Z,67
2022-09-15T02:02:57.448Z,59
2022-09-15T02:12:58.310Z,79
2022-09-15T02:22:58.610Z,29
2022-09-15T02:32:59.372Z,60
2022-09-15T02:42:59.819Z,45
2022-09-15T02:53:00.430Z,31
2022-09-15T03:03:00.816Z,27
2022-09-15T03:13:01.610Z,63
2022-09-15T03:23:02.106Z,30
2022-09-15T03:33:03.163Z,37
2022-09-15T03:43:03.281Z,68
2022-09-15T03:53:03.731Z,25
2022-09-15T04:03:04.086Z,14
2022-09-15T04:23:05.237Z,69
2022-09-15T04:33:05.997Z,48
2022-09-15T04:53:06.513Z,68
2022-09-15T05:03:07.244Z,44
2022-09-15T05:13:07.372Z,38
2022-09-15T05:23:08.174Z,45
2022-09-15T05:33:09.095Z,56
2022-09-15T05:43:09.158Z,35
2022-09-15T05:53:09.461Z,24
2022-09-15T06:03:10.181Z,39
2022-09-15T06:13:10.488Z,35
2022-09-15T06:33:11.646Z,62
2022-09-15T06:43:12.055Z,18
2022-09-15T06:53:12.721Z,34
2022-09-15T07:03:13.280Z,9
2022-09-15T07:13:13.374Z,19
2022-09-15T07:23:13.615Z,25
2022-09-15T07:43:14.428Z,8
2022-09-15T07:53:15.252Z,27
2022-09-15T08:13:16.593Z,34
2022-09-15T08:23:17.392Z,60
2022-09-15T08:43:18.372Z,65
2022-09-15T08:53:18.685Z,0
2022-09-15T09:03:19.695Z,0
2022-09-15T09:13:20.239Z,0
2022-09-15T09:23:20.839Z,0
2022-09-15T09:33:21.357Z,45
2022-09-15T09:43:21.554Z,36
2022-09-15T09:53:22.260Z,48
2022-09-15T10:03:23.245Z,58
2022-09-15T10:13:23.388Z,46
2022-09-15T10:23:24.363Z,50
2022-09-15T10:33:25.049Z,26
2022-09-15T10:43:25.474Z,0
2022-09-15T10:53:26.418Z,0
2022-09-15T11:03:26.532Z,0
2022-09-15T11:13:27.124Z,0
2022-09-15T11:23:27.568Z,0
2022-09-15T11:33:28.141Z,100
2022-09-15T11:43:28.925Z,0
2022-09-15T11:53:29.061Z,0
2022-09-15T12:03:29.374Z,11
2022-09-15T12:13:30.012Z,22
2022-09-15T12:23:30.633Z,29
2022-09-15T12:33:31.028Z,30
2022-09-15T12:43:31.923Z,23
2022-09-15T12:53:32.711Z,52
2022-09-15T13:03:33.412Z,55
2022-09-15T13:13:33.934Z,60
2022-09-15T13:23:34.241Z,55
2022-09-15T13:43:38.667Z,77
2022-09-15T13:53:35.677Z,80
2022-09-15T13:53:57.595Z,79
2022-09-15T14:03:41.369Z,86
2022-09-15T14:13:41.963Z,82
2022-09-15T14:23:42.409Z,86
2022-09-15T14:33:42.944Z,90
2022-09-15T14:43:43.386Z,92
2022-09-15T14:53:43.841Z,93
2022-09-15T15:03:43.967Z,87
2022-09-15T15:13:44.184Z,88
2022-09-15T15:23:46.813Z,80
2022-09-15T15:33:45.833Z,82
2022-09-15T15:53:46.950Z,0
2022-09-15T16:03:47.209Z,27
2022-09-15T16:13:48.246Z,4
2022-09-15T16:23:48.682Z,47
2022-09-15T16:33:49.090Z,23
2022-09-15T16:43:49.529Z,48
2022-09-15T16:53:49.916Z,71
2022-09-15T17:03:50.479Z,0
2022-09-15T17:13:51.056Z,35
2022-09-15T17:23:52.077Z,0
2022-09-15T17:33:52.355Z,0
2022-09-15T17:43:52.871Z,29
2022-09-15T17:53:52.936Z,0
2022-09-15T18:03:53.849Z,0
2022-09-15T18:13:54.072Z,0
2022-09-15T18:23:54.479Z,0
2022-09-15T18:33:55.543Z,0
2022-09-15T18:43:55.647Z,0
2022-09-15T18:53:56.077Z,0
2022-09-15T19:03:57.186Z,0
2022-09-15T19:13:57.531Z,0
2022-09-15T19:23:57.815Z,0
2022-09-15T19:33:58.681Z,0
2022-09-15T19:43:59.248Z,0
2022-09-15T19:53:59.988Z,0
2022-09-15T20:04:00.925Z,0
2022-09-15T20:14:02.046Z,0
2022-09-15T20:34:02.835Z,0
2022-09-15T20:54:03.621Z,0
2022-09-15T21:04:04.248Z,0
2022-09-15T21:14:04.384Z,0
2022-09-15T21:24:05.315Z,0
2022-09-15T21:34:05.545Z,0
2022-09-15T21:44:06.304Z,64
2022-09-15T21:54:07.087Z,85
2022-09-15T22:14:07.244Z,88
2022-09-15T22:24:07.782Z,0
2022-09-15T22:34:08.001Z,61
2022-09-15T22:54:09.886Z,74
2022-09-15T23:14:10.427Z,0
2022-09-15T23:34:10.908Z,0
2022-09-15T23:44:11.956Z,0
2022-09-15T23:54:12.226Z,0
